Semarang, Indonesia

10:05 AM WIT on August 22, 2014 (GMT +0700)
ACHMAD YANI | Change Station
CLOSE
Current Station
Airport
Location: ACHMAD YANI,
Elevation: 10 ft
Nearby Weather Stations

Elev 10 ft 6.97 °S, 110.38 °E | Updated 35 minutes ago

Mostly Cloudy
Mostly Cloudy
86 °F
Feels Like 89 °F
N
8
Wind Variable Wind from ESE

Today
High -- | Low -- °F
--% Chance of Precip.
Yesterday
High -- | Low -- °F
Precip. -- in
5:43 AM 5:38 PM
Waning Crescent, 11% visible
Pressure 29.89 in
Visibility 3.7 miles
Clouds Mostly Cloudy 2000 ft
Heat Index 89 °F
Dew Point 68 °F
Humidity 55%
Rainfall 0.00 in
Snow Depth Not available.
UV 6 out of 12
Pollen Not available.
Air Quality Not available.
Flu Activity Not available.
METAR WARS 220230Z 11007KT 6000 BKN020 30/20 Q1012 NOSIG

More Conditions Fewer Conditions

Pressure 29.89 in
Visibility 3.7 miles
Clouds Mostly Cloudy 2000 ft
Heat Index 89 °F
Dew Point 68 °F
Humidity 55%
Rainfall 0.00 in
Snow Depth Not available.
UV 6 out of 12
Pollen Not available.
Air Quality Not available.
Flu Activity Not available.
METAR WARS 220230Z 11007KT 6000 BKN020 30/20 Q1012 NOSIG

More Conditions Fewer Conditions

10-Day Weather Forecast

Almanac

Astronomy

Aug. 22, 2014 Rise Set
Actual Time 5:43 AM WIT 5:38 PM WIT
Civil Twilight 5:22 AM WIT 6:00 PM WIT
Nautical Twilight 4:57 AM WIT 6:24 PM WIT
Astronomical Twilight 4:33 AM WIT 6:49 PM WIT
Moon 3:00 AM WIT 3:05 PM WIT
Length of Visible Light 12h 37m
Length of Day
11h 55m
Tomorrow will be 0m 21s longer.
Waning Crescent, 11% of the Moon is Illuminated
Aug 21
Waning Crescent
Aug 25
New
Sep 2
First Quarter
Sep 8
Full
Sep 15
Last Quarter

Yesterday's Extremes

Country Highs Country Lows

Community

WunderPhotos

Upload Photos

1,746,112 photos uploaded!

WunderBlogs® & News

Nearby

Snow Depth

Not available.

Earthquake Activity

City Distance Mag. Time & Date
No recent earthquake activity has been reported nearby.
Minimum magnitude displayed is 2.5.

Coastal Water Temperatures

Place Temperature
No Stations Reporting

Nearby Weather Stations